sensor_id;sensor_type;location;lat;lon;timestamp;P1;durP1;ratioP1;P2;durP2;ratioP2
30896;SDS011;64229;52.246;21.054;2024-03-23T00:51:35;29.48;;;13.07;;
30896;SDS011;64229;52.246;21.054;2024-03-23T00:54:01;29.42;;;12.50;;
30896;SDS011;64229;52.246;21.054;2024-03-23T00:56:26;35.10;;;12.80;;
30896;SDS011;64229;52.246;21.054;2024-03-23T00:58:52;26.58;;;11.85;;
30896;SDS011;64229;52.246;21.054;2024-03-23T01:01:17;31.03;;;12.73;;
30896;SDS011;64229;52.246;21.054;2024-03-23T01:03:42;27.63;;;12.82;;
30896;SDS011;64229;52.246;21.054;2024-03-23T01:06:07;28.67;;;12.55;;
30896;SDS011;64229;52.246;21.054;2024-03-23T01:08:33;28.08;;;12.70;;
30896;SDS011;64229;52.246;21.054;2024-03-23T01:10:59;27.08;;;12.80;;
30896;SDS011;64229;52.246;21.054;2024-03-23T01:13:25;29.80;;;13.40;;
30896;SDS011;64229;52.246;21.054;2024-03-23T01:15:51;32.17;;;14.05;;
30896;SDS011;64229;52.246;21.054;2024-03-23T01:18:17;29.98;;;14.25;;
30896;SDS011;64229;52.246;21.054;2024-03-23T01:20:46;29.40;;;12.80;;
30896;SDS011;64229;52.246;21.054;2024-03-23T01:23:11;30.77;;;14.25;;
30896;SDS011;64229;52.246;21.054;2024-03-23T01:25:37;30.90;;;13.95;;
30896;SDS011;64229;52.246;21.054;2024-03-23T01:28:03;31.02;;;13.85;;
30896;SDS011;64229;52.246;21.054;2024-03-23T01:30:28;29.88;;;14.05;;
30896;SDS011;64229;52.246;21.054;2024-03-23T01:32:55;36.17;;;14.55;;
30896;SDS011;64229;52.246;21.054;2024-03-23T01:35:20;35.78;;;15.13;;
30896;SDS011;64229;52.246;21.054;2024-03-23T01:37:45;33.47;;;15.80;;
30896;SDS011;64229;52.246;21.054;2024-03-23T01:40:11;30.95;;;13.63;;
30896;SDS011;64229;52.246;21.054;2024-03-23T01:42:38;33.17;;;15.68;;
30896;SDS011;64229;52.246;21.054;2024-03-23T01:45:05;33.42;;;15.65;;
30896;SDS011;64229;52.246;21.054;2024-03-23T01:47:32;30.63;;;14.18;;
30896;SDS011;64229;52.246;21.054;2024-03-23T01:49:58;34.47;;;15.40;;
30896;SDS011;64229;52.246;21.054;2024-03-23T01:52:24;36.28;;;15.40;;
30896;SDS011;64229;52.246;21.054;2024-03-23T01:54:50;34.05;;;14.77;;
30896;SDS011;64229;52.246;21.054;2024-03-23T01:57:15;38.35;;;16.63;;
30896;SDS011;64229;52.246;21.054;2024-03-23T01:59:41;37.30;;;14.98;;
30896;SDS011;64229;52.246;21.054;2024-03-23T02:02:06;37.72;;;15.10;;
30896;SDS011;64229;52.246;21.054;2024-03-23T02:04:31;33.80;;;15.23;;
30896;SDS011;64229;52.246;21.054;2024-03-23T02:06:56;31.70;;;15.03;;
30896;SDS011;64229;52.246;21.054;2024-03-23T02:09:21;35.70;;;15.67;;
30896;SDS011;64229;52.246;21.054;2024-03-23T02:11:47;34.53;;;16.30;;
30896;SDS011;64229;52.246;21.054;2024-03-23T02:14:12;39.33;;;17.70;;
30896;SDS011;64229;52.246;21.054;2024-03-23T02:16:38;35.40;;;15.40;;
30896;SDS011;64229;52.246;21.054;2024-03-23T02:19:03;35.60;;;16.23;;
30896;SDS011;64229;52.246;21.054;2024-03-23T02:21:28;37.83;;;16.17;;
30896;SDS011;64229;52.246;21.054;2024-03-23T02:23:56;39.40;;;17.77;;
30896;SDS011;64229;52.246;21.054;2024-03-23T02:26:22;38.40;;;17.50;;
30896;SDS011;64229;52.246;21.054;2024-03-23T02:28:47;39.42;;;17.13;;
30896;SDS011;64229;52.246;21.054;2024-03-23T02:31:12;33.43;;;16.77;;
30896;SDS011;64229;52.246;21.054;2024-03-23T02:33:38;37.38;;;16.70;;
30896;SDS011;64229;52.246;21.054;2024-03-23T02:36:03;39.75;;;16.88;;
30896;SDS011;64229;52.246;21.054;2024-03-23T02:38:29;37.03;;;15.15;;
30896;SDS011;64229;52.246;21.054;2024-03-23T02:40:54;34.50;;;15.15;;
30896;SDS011;64229;52.246;21.054;2024-03-23T02:43:19;31.73;;;15.60;;
30896;SDS011;64229;52.246;21.054;2024-03-23T02:45:45;35.20;;;16.08;;
30896;SDS011;64229;52.246;21.054;2024-03-23T02:48:10;36.22;;;16.17;;
30896;SDS011;64229;52.246;21.054;2024-03-23T02:50:35;32.83;;;15.87;;
30896;SDS011;64229;52.246;21.054;2024-03-23T02:53:01;35.25;;;15.35;;
30896;SDS011;64229;52.246;21.054;2024-03-23T02:55:26;38.73;;;16.33;;
30896;SDS011;64229;52.246;21.054;2024-03-23T02:57:51;34.37;;;15.90;;
30896;SDS011;64229;52.246;21.054;2024-03-23T03:00:17;33.47;;;15.95;;
30896;SDS011;64229;52.246;21.054;2024-03-23T03:02:42;38.03;;;15.95;;
30896;SDS011;64229;52.246;21.054;2024-03-23T03:05:08;41.08;;;18.40;;
30896;SDS011;64229;52.246;21.054;2024-03-23T03:07:34;39.00;;;16.73;;
30896;SDS011;64229;52.246;21.054;2024-03-23T03:09:59;35.35;;;16.45;;
30896;SDS011;64229;52.246;21.054;2024-03-23T03:12:24;33.70;;;16.52;;
30896;SDS011;64229;52.246;21.054;2024-03-23T03:14:50;34.95;;;16.52;;
30896;SDS011;64229;52.246;21.054;2024-03-23T03:17:15;40.83;;;15.23;;
30896;SDS011;64229;52.246;21.054;2024-03-23T03:19:40;35.13;;;15.80;;
30896;SDS011;64229;52.246;21.054;2024-03-23T03:22:06;33.80;;;15.45;;
30896;SDS011;64229;52.246;21.054;2024-03-23T03:24:31;33.25;;;15.50;;
30896;SDS011;64229;52.246;21.054;2024-03-23T03:26:56;37.70;;;15.63;;
30896;SDS011;64229;52.246;21.054;2024-03-23T03:29:23;35.80;;;16.50;;
30896;SDS011;64229;52.246;21.054;2024-03-23T03:31:48;32.72;;;15.45;;
30896;SDS011;64229;52.246;21.054;2024-03-23T03:34:14;32.58;;;15.73;;
30896;SDS011;64229;52.246;21.054;2024-03-23T03:36:40;34.03;;;16.63;;
30896;SDS011;64229;52.246;21.054;2024-03-23T03:39:05;36.37;;;15.17;;
30896;SDS011;64229;52.246;21.054;2024-03-23T03:41:31;33.05;;;15.35;;
30896;SDS011;64229;52.246;21.054;2024-03-23T03:43:57;31.88;;;13.95;;
30896;SDS011;64229;52.246;21.054;2024-03-23T03:46:26;36.08;;;15.05;;
30896;SDS011;64229;52.246;21.054;2024-03-23T03:48:51;37.80;;;17.48;;
30896;SDS011;64229;52.246;21.054;2024-03-23T03:51:16;34.77;;;15.67;;
30896;SDS011;64229;52.246;21.054;2024-03-23T03:53:42;39.47;;;17.07;;
30896;SDS011;64229;52.246;21.054;2024-03-23T03:56:07;31.50;;;14.50;;
30896;SDS011;64229;52.246;21.054;2024-03-23T03:58:32;32.58;;;14.43;;
30896;SDS011;64229;52.246;21.054;2024-03-23T04:00:58;33.77;;;15.40;;
30896;SDS011;64229;52.246;21.054;2024-03-23T04:03:23;34.10;;;15.38;;
30896;SDS011;64229;52.246;21.054;2024-03-23T04:05:54;29.50;;;14.35;;
30896;SDS011;64229;52.246;21.054;2024-03-23T04:08:20;36.33;;;15.30;;
30896;SDS011;64229;52.246;21.054;2024-03-23T04:10:46;31.35;;;15.02;;
30896;SDS011;64229;52.246;21.054;2024-03-23T04:13:14;29.27;;;12.68;;
30896;SDS011;64229;52.246;21.054;2024-03-23T04:15:40;31.58;;;14.05;;
30896;SDS011;64229;52.246;21.054;2024-03-23T04:18:05;29.25;;;13.95;;
30896;SDS011;64229;52.246;21.054;2024-03-23T04:20:31;29.85;;;14.32;;
30896;SDS011;64229;52.246;21.054;2024-03-23T04:22:57;33.30;;;14.48;;
30896;SDS011;64229;52.246;21.054;2024-03-23T04:25:22;33.75;;;15.02;;
30896;SDS011;64229;52.246;21.054;2024-03-23T04:27:47;33.70;;;15.55;;
30896;SDS011;64229;52.246;21.054;2024-03-23T04:30:13;33.17;;;14.97;;
30896;SDS011;64229;52.246;21.054;2024-03-23T04:32:38;28.10;;;14.80;;
30896;SDS011;64229;52.246;21.054;2024-03-23T04:35:05;38.80;;;15.75;;
30896;SDS011;64229;52.246;21.054;2024-03-23T04:37:36;31.10;;;14.43;;
30896;SDS011;64229;52.246;21.054;2024-03-23T04:40:02;35.20;;;15.05;;
30896;SDS011;64229;52.246;21.054;2024-03-23T04:42:28;34.95;;;15.32;;
30896;SDS011;64229;52.246;21.054;2024-03-23T04:44:54;33.55;;;15.27;;
30896;SDS011;64229;52.246;21.054;2024-03-23T04:47:20;30.13;;;14.32;;
30896;SDS011;64229;52.246;21.054;2024-03-23T04:49:45;36.38;;;16.02;;
30896;SDS011;64229;52.246;21.054;2024-03-23T04:52:10;30.97;;;15.67;;
30896;SDS011;64229;52.246;21.054;2024-03-23T04:54:36;32.47;;;15.82;;
30896;SDS011;64229;52.246;21.054;2024-03-23T04:57:01;32.00;;;15.68;;
30896;SDS011;64229;52.246;21.054;2024-03-23T04:59:26;36.30;;;17.00;;
30896;SDS011;64229;52.246;21.054;2024-03-23T05:01:52;37.75;;;18.42;;
30896;SDS011;64229;52.246;21.054;2024-03-23T05:04:17;36.22;;;17.90;;
30896;SDS011;64229;52.246;21.054;2024-03-23T05:06:42;32.73;;;16.07;;
30896;SDS011;64229;52.246;21.054;2024-03-23T05:09:08;36.60;;;17.40;;
30896;SDS011;64229;52.246;21.054;2024-03-23T05:11:36;35.05;;;16.58;;
30896;SDS011;64229;52.246;21.054;2024-03-23T05:14:02;41.83;;;17.75;;
30896;SDS011;64229;52.246;21.054;2024-03-23T05:16:28;35.33;;;16.95;;
30896;SDS011;64229;52.246;21.054;2024-03-23T05:18:53;51.05;;;22.45;;
30896;SDS011;64229;52.246;21.054;2024-03-23T05:21:18;36.55;;;17.00;;
30896;SDS011;64229;52.246;21.054;2024-03-23T05:23:44;36.15;;;16.63;;
30896;SDS011;64229;52.246;21.054;2024-03-23T05:26:09;36.70;;;16.55;;
30896;SDS011;64229;52.246;21.054;2024-03-23T05:28:35;33.40;;;16.50;;
30896;SDS011;64229;52.246;21.054;2024-03-23T05:31:00;33.47;;;15.88;;
30896;SDS011;64229;52.246;21.054;2024-03-23T05:33:25;38.97;;;17.25;;
30896;SDS011;64229;52.246;21.054;2024-03-23T05:35:57;34.53;;;15.10;;
30896;SDS011;64229;52.246;21.054;2024-03-23T05:38:24;39.80;;;15.77;;
30896;SDS011;64229;52.246;21.054;2024-03-23T05:40:53;35.63;;;16.35;;
30896;SDS011;64229;52.246;21.054;2024-03-23T05:43:19;37.10;;;17.08;;
30896;SDS011;64229;52.246;21.054;2024-03-23T05:45:44;39.03;;;18.10;;
30896;SDS011;64229;52.246;21.054;2024-03-23T05:48:09;34.78;;;15.93;;
30896;SDS011;64229;52.246;21.054;2024-03-23T05:50:35;38.80;;;17.50;;
30896;SDS011;64229;52.246;21.054;2024-03-23T05:53:00;37.33;;;16.73;;
30896;SDS011;64229;52.246;21.054;2024-03-23T05:55:25;38.55;;;17.15;;
30896;SDS011;64229;52.246;21.054;2024-03-23T05:57:52;49.83;;;23.23;;
30896;SDS011;64229;52.246;21.054;2024-03-23T06:00:17;41.03;;;18.27;;
30896;SDS011;64229;52.246;21.054;2024-03-23T06:02:43;41.22;;;18.33;;
30896;SDS011;64229;52.246;21.054;2024-03-23T06:05:09;49.50;;;21.70;;
30896;SDS011;64229;52.246;21.054;2024-03-23T06:07:35;42.05;;;19.17;;
30896;SDS011;64229;52.246;21.054;2024-03-23T06:10:01;40.90;;;18.17;;
30896;SDS011;64229;52.246;21.054;2024-03-23T06:12:26;43.17;;;18.67;;
30896;SDS011;64229;52.246;21.054;2024-03-23T06:14:51;45.00;;;17.90;;
30896;SDS011;64229;52.246;21.054;2024-03-23T06:17:16;46.03;;;19.50;;
30896;SDS011;64229;52.246;21.054;2024-03-23T06:19:42;45.05;;;18.40;;
30896;SDS011;64229;52.246;21.054;2024-03-23T06:22:08;36.90;;;17.37;;
30896;SDS011;64229;52.246;21.054;2024-03-23T06:24:33;40.60;;;18.48;;
30896;SDS011;64229;52.246;21.054;2024-03-23T06:26:58;46.53;;;20.77;;
30896;SDS011;64229;52.246;21.054;2024-03-23T06:29:23;41.50;;;18.17;;
30896;SDS011;64229;52.246;21.054;2024-03-23T06:31:55;43.03;;;18.92;;
30896;SDS011;64229;52.246;21.054;2024-03-23T06:34:21;41.47;;;18.20;;
30896;SDS011;64229;52.246;21.054;2024-03-23T06:36:49;40.97;;;18.33;;
30896;SDS011;64229;52.246;21.054;2024-03-23T06:39:15;44.22;;;18.45;;
30896;SDS011;64229;52.246;21.054;2024-03-23T06:41:41;42.90;;;19.48;;
30896;SDS011;64229;52.246;21.054;2024-03-23T06:44:07;42.40;;;18.95;;
30896;SDS011;64229;52.246;21.054;2024-03-23T06:46:32;43.75;;;18.92;;
30896;SDS011;64229;52.246;21.054;2024-03-23T06:48:58;40.88;;;18.65;;
30896;SDS011;64229;52.246;21.054;2024-03-23T06:51:23;41.30;;;17.87;;
30896;SDS011;64229;52.246;21.054;2024-03-23T06:53:49;38.13;;;17.40;;
30896;SDS011;64229;52.246;21.054;2024-03-23T06:56:14;40.45;;;17.35;;
30896;SDS011;64229;52.246;21.054;2024-03-23T06:58:40;40.35;;;17.15;;
30896;SDS011;64229;52.246;21.054;2024-03-23T07:01:05;39.30;;;18.00;;
30896;SDS011;64229;52.246;21.054;2024-03-23T07:03:30;38.60;;;18.30;;
30896;SDS011;64229;52.246;21.054;2024-03-23T07:05:59;39.10;;;17.50;;
30896;SDS011;64229;52.246;21.054;2024-03-23T07:08:24;40.10;;;18.13;;
30896;SDS011;64229;52.246;21.054;2024-03-23T07:10:49;39.90;;;17.98;;
30896;SDS011;64229;52.246;21.054;2024-03-23T07:13:15;39.42;;;17.75;;
30896;SDS011;64229;52.246;21.054;2024-03-23T07:15:40;38.72;;;18.30;;
30896;SDS011;64229;52.246;21.054;2024-03-23T07:18:05;41.17;;;18.13;;
30896;SDS011;64229;52.246;21.054;2024-03-23T07:20:30;38.75;;;17.63;;
30896;SDS011;64229;52.246;21.054;2024-03-23T07:22:56;40.33;;;18.40;;
30896;SDS011;64229;52.246;21.054;2024-03-23T07:25:22;42.53;;;17.02;;
30896;SDS011;64229;52.246;21.054;2024-03-23T07:27:48;35.28;;;16.80;;
30896;SDS011;64229;52.246;21.054;2024-03-23T07:30:14;41.97;;;17.98;;
30896;SDS011;64229;52.246;21.054;2024-03-23T07:32:39;39.67;;;16.30;;
30896;SDS011;64229;52.246;21.054;2024-03-23T07:35:04;40.13;;;16.20;;
30896;SDS011;64229;52.246;21.054;2024-03-23T07:37:30;34.85;;;16.80;;
30896;SDS011;64229;52.246;21.054;2024-03-23T07:39:56;37.33;;;15.90;;
30896;SDS011;64229;52.246;21.054;2024-03-23T07:42:22;39.38;;;16.20;;
30896;SDS011;64229;52.246;21.054;2024-03-23T07:44:47;34.28;;;14.93;;
30896;SDS011;64229;52.246;21.054;2024-03-23T07:47:13;34.25;;;15.05;;
30896;SDS011;64229;52.246;21.054;2024-03-23T07:49:38;34.63;;;15.82;;
30896;SDS011;64229;52.246;21.054;2024-03-23T07:52:04;32.05;;;14.50;;
30896;SDS011;64229;52.246;21.054;2024-03-23T07:54:30;30.48;;;14.70;;
30896;SDS011;64229;52.246;21.054;2024-03-23T07:56:55;29.83;;;14.35;;
30896;SDS011;64229;52.246;21.054;2024-03-23T07:59:20;27.77;;;13.35;;
30896;SDS011;64229;52.246;21.054;2024-03-23T08:01:46;31.37;;;14.43;;
30896;SDS011;64229;52.246;21.054;2024-03-23T08:04:11;29.87;;;14.40;;
30896;SDS011;64229;52.246;21.054;2024-03-23T08:06:36;32.55;;;14.80;;
30896;SDS011;64229;52.246;21.054;2024-03-23T08:09:03;30.98;;;13.85;;
30896;SDS011;64229;52.246;21.054;2024-03-23T08:11:29;33.80;;;15.90;;
30896;SDS011;64229;52.246;21.054;2024-03-23T08:13:55;33.80;;;15.02;;
30896;SDS011;64229;52.246;21.054;2024-03-23T08:16:20;30.50;;;14.15;;
30896;SDS011;64229;52.246;21.054;2024-03-23T08:18:46;34.75;;;15.95;;
30896;SDS011;64229;52.246;21.054;2024-03-23T08:21:11;33.20;;;14.77;;
30896;SDS011;64229;52.246;21.054;2024-03-23T08:23:37;35.17;;;16.10;;
30896;SDS011;64229;52.246;21.054;2024-03-23T08:26:04;34.97;;;15.80;;
30896;SDS011;64229;52.246;21.054;2024-03-23T08:28:33;31.83;;;14.25;;
30896;SDS011;64229;52.246;21.054;2024-03-23T08:31:03;38.65;;;15.75;;
30896;SDS011;64229;52.246;21.054;2024-03-23T08:33:30;35.25;;;14.25;;
30896;SDS011;64229;52.246;21.054;2024-03-23T08:36:00;32.58;;;14.95;;
30896;SDS011;64229;52.246;21.054;2024-03-23T08:38:26;33.08;;;15.93;;
30896;SDS011;64229;52.246;21.054;2024-03-23T08:41:08;36.90;;;16.00;;
30896;SDS011;64229;52.246;21.054;2024-03-23T08:43:38;34.97;;;13.57;;
30896;SDS011;64229;52.246;21.054;2024-03-23T08:46:11;32.85;;;13.98;;
30896;SDS011;64229;52.246;21.054;2024-03-23T08:48:39;35.33;;;15.32;;
30896;SDS011;64229;52.246;21.054;2024-03-23T08:51:06;33.45;;;15.43;;
30896;SDS011;64229;52.246;21.054;2024-03-23T08:53:33;31.30;;;14.85;;
30896;SDS011;64229;52.246;21.054;2024-03-23T08:55:59;32.78;;;15.00;;
30896;SDS011;64229;52.246;21.054;2024-03-23T08:58:26;34.50;;;14.32;;
30896;SDS011;64229;52.246;21.054;2024-03-23T09:00:52;31.80;;;14.75;;
30896;SDS011;64229;52.246;21.054;2024-03-23T09:03:21;27.45;;;12.93;;
30896;SDS011;64229;52.246;21.054;2024-03-23T09:05:47;27.17;;;13.15;;
30896;SDS011;64229;52.246;21.054;2024-03-23T09:08:12;28.10;;;12.40;;
30896;SDS011;64229;52.246;21.054;2024-03-23T09:10:40;28.67;;;13.25;;
30896;SDS011;64229;52.246;21.054;2024-03-23T09:13:07;24.23;;;11.70;;
30896;SDS011;64229;52.246;21.054;2024-03-23T09:15:36;24.20;;;11.30;;
30896;SDS011;64229;52.246;21.054;2024-03-23T09:18:03;22.80;;;11.13;;
30896;SDS011;64229;52.246;21.054;2024-03-23T09:20:29;23.25;;;11.05;;
30896;SDS011;64229;52.246;21.054;2024-03-23T09:22:57;22.23;;;10.63;;
30896;SDS011;64229;52.246;21.054;2024-03-23T09:25:22;24.13;;;10.95;;
30896;SDS011;64229;52.246;21.054;2024-03-23T09:27:47;23.07;;;10.20;;
30896;SDS011;64229;52.246;21.054;2024-03-23T09:30:13;23.07;;;10.63;;
30896;SDS011;64229;52.246;21.054;2024-03-23T09:32:38;22.73;;;10.15;;
30896;SDS011;64229;52.246;21.054;2024-03-23T09:35:04;19.75;;;9.68;;
30896;SDS011;64229;52.246;21.054;2024-03-23T09:37:29;23.52;;;10.60;;
30896;SDS011;64229;52.246;21.054;2024-03-23T09:39:55;20.83;;;10.48;;
30896;SDS011;64229;52.246;21.054;2024-03-23T09:42:20;19.40;;;10.27;;
30896;SDS011;64229;52.246;21.054;2024-03-23T09:44:46;23.95;;;9.43;;
30896;SDS011;64229;52.246;21.054;2024-03-23T09:47:13;21.35;;;10.00;;
30896;SDS011;64229;52.246;21.054;2024-03-23T09:49:39;22.25;;;9.80;;
30896;SDS011;64229;52.246;21.054;2024-03-23T09:52:05;21.95;;;10.52;;
30896;SDS011;64229;52.246;21.054;2024-03-23T09:54:30;23.87;;;10.00;;
30896;SDS011;64229;52.246;21.054;2024-03-23T09:56:57;18.88;;;9.48;;
30896;SDS011;64229;52.246;21.054;2024-03-23T09:59:23;22.85;;;10.95;;
30896;SDS011;64229;52.246;21.054;2024-03-23T10:01:48;21.70;;;10.23;;
30896;SDS011;64229;52.246;21.054;2024-03-23T10:07:15;18.67;;;9.43;;
30896;SDS011;64229;52.246;21.054;2024-03-23T10:09:42;18.88;;;8.48;;
30896;SDS011;64229;52.246;21.054;2024-03-23T10:12:11;20.83;;;9.18;;
30896;SDS011;64229;52.246;21.054;2024-03-23T10:14:38;18.17;;;9.30;;
30896;SDS011;64229;52.246;21.054;2024-03-23T10:17:14;20.70;;;9.02;;
30896;SDS011;64229;52.246;21.054;2024-03-23T10:19:42;16.10;;;8.23;;
30896;SDS011;64229;52.246;21.054;2024-03-23T10:22:17;19.15;;;8.50;;
30896;SDS011;64229;52.246;21.054;2024-03-23T10:24:46;66.18;;;31.73;;
30896;SDS011;64229;52.246;21.054;2024-03-23T10:27:19;27.13;;;13.30;;
30896;SDS011;64229;52.246;21.054;2024-03-23T10:29:46;18.88;;;9.07;;
30896;SDS011;64229;52.246;21.054;2024-03-23T10:32:12;18.55;;;9.20;;
30896;SDS011;64229;52.246;21.054;2024-03-23T10:34:42;19.67;;;9.75;;
30896;SDS011;64229;52.246;21.054;2024-03-23T10:37:07;19.05;;;9.15;;
30896;SDS011;64229;52.246;21.054;2024-03-23T10:39:34;17.45;;;8.95;;
30896;SDS011;64229;52.246;21.054;2024-03-23T10:42:01;18.20;;;8.18;;
30896;SDS011;64229;52.246;21.054;2024-03-23T10:44:32;16.00;;;8.20;;
30896;SDS011;64229;52.246;21.054;2024-03-23T10:46:58;15.90;;;9.57;;
30896;SDS011;64229;52.246;21.054;2024-03-23T10:49:26;18.50;;;8.63;;
30896;SDS011;64229;52.246;21.054;2024-03-23T10:51:52;15.05;;;7.55;;
30896;SDS011;64229;52.246;21.054;2024-03-23T10:54:18;15.40;;;7.67;;
30896;SDS011;64229;52.246;21.054;2024-03-23T10:56:44;15.85;;;7.72;;
30896;SDS011;64229;52.246;21.054;2024-03-23T10:59:11;18.77;;;7.93;;
30896;SDS011;64229;52.246;21.054;2024-03-23T11:01:57;39.10;;;19.08;;
30896;SDS011;64229;52.246;21.054;2024-03-23T11:04:30;17.33;;;8.57;;
30896;SDS011;64229;52.246;21.054;2024-03-23T11:06:56;18.33;;;9.40;;
30896;SDS011;64229;52.246;21.054;2024-03-23T11:09:40;18.50;;;8.60;;
30896;SDS011;64229;52.246;21.054;2024-03-23T11:14:50;17.77;;;8.77;;
30896;SDS011;64229;52.246;21.054;2024-03-23T11:17:23;19.10;;;8.90;;
30896;SDS011;64229;52.246;21.054;2024-03-23T11:25:02;16.65;;;8.77;;
30896;SDS011;64229;52.246;21.054;2024-03-23T11:27:28;19.15;;;8.45;;
30896;SDS011;64229;52.246;21.054;2024-03-23T11:29:53;14.67;;;8.63;;
30896;SDS011;64229;52.246;21.054;2024-03-23T11:32:18;13.03;;;6.87;;
30896;SDS011;64229;52.246;21.054;2024-03-23T11:34:44;15.07;;;7.80;;
30896;SDS011;64229;52.246;21.054;2024-03-23T11:37:09;14.95;;;7.18;;
30896;SDS011;64229;52.246;21.054;2024-03-23T11:39:34;13.20;;;6.97;;
30896;SDS011;64229;52.246;21.054;2024-03-23T11:41:59;16.67;;;8.73;;
30896;SDS011;64229;52.246;21.054;2024-03-23T11:44:25;19.33;;;8.93;;
30896;SDS011;64229;52.246;21.054;2024-03-23T11:46:52;12.38;;;6.28;;
30896;SDS011;64229;52.246;21.054;2024-03-23T11:49:24;11.88;;;5.55;;
30896;SDS011;64229;52.246;21.054;2024-03-23T11:51:51;11.80;;;5.57;;
30896;SDS011;64229;52.246;21.054;2024-03-23T11:54:19;11.35;;;5.97;;
30896;SDS011;64229;52.246;21.054;2024-03-23T11:56:55;11.07;;;5.72;;
30896;SDS011;64229;52.246;21.054;2024-03-23T11:59:38;13.00;;;6.18;;
30896;SDS011;64229;52.246;21.054;2024-03-23T12:02:11;12.88;;;6.50;;
30896;SDS011;64229;52.246;21.054;2024-03-23T12:04:39;13.10;;;5.97;;
30896;SDS011;64229;52.246;21.054;2024-03-23T12:07:11;9.73;;;5.70;;
30896;SDS011;64229;52.246;21.054;2024-03-23T12:09:44;11.02;;;5.75;;
30896;SDS011;64229;52.246;21.054;2024-03-23T12:12:14;12.73;;;5.82;;
30896;SDS011;64229;52.246;21.054;2024-03-23T12:14:44;11.63;;;5.72;;
30896;SDS011;64229;52.246;21.054;2024-03-23T12:17:10;11.95;;;5.78;;
30896;SDS011;64229;52.246;21.054;2024-03-23T12:19:36;10.43;;;4.72;;
30896;SDS011;64229;52.246;21.054;2024-03-23T12:22:02;8.40;;;4.68;;
30896;SDS011;64229;52.246;21.054;2024-03-23T12:24:28;11.05;;;5.63;;
30896;SDS011;64229;52.246;21.054;2024-03-23T12:26:54;9.52;;;5.40;;
30896;SDS011;64229;52.246;21.054;2024-03-23T12:29:20;13.68;;;5.80;;
30896;SDS011;64229;52.246;21.054;2024-03-23T12:31:45;11.85;;;5.50;;
30896;SDS011;64229;52.246;21.054;2024-03-23T12:34:10;10.43;;;5.43;;
30896;SDS011;64229;52.246;21.054;2024-03-23T12:36:35;12.93;;;6.30;;
30896;SDS011;64229;52.246;21.054;2024-03-23T12:39:01;10.95;;;5.97;;
30896;SDS011;64229;52.246;21.054;2024-03-23T12:41:26;14.38;;;5.28;;
30896;SDS011;64229;52.246;21.054;2024-03-23T12:43:51;10.80;;;5.60;;
30896;SDS011;64229;52.246;21.054;2024-03-23T12:46:19;13.02;;;6.20;;
30896;SDS011;64229;52.246;21.054;2024-03-23T12:48:45;11.80;;;5.57;;
30896;SDS011;64229;52.246;21.054;2024-03-23T12:51:10;11.13;;;5.50;;
30896;SDS011;64229;52.246;21.054;2024-03-23T12:53:35;14.77;;;5.88;;
30896;SDS011;64229;52.246;21.054;2024-03-23T12:56:00;11.48;;;5.97;;
30896;SDS011;64229;52.246;21.054;2024-03-23T12:58:26;11.40;;;6.05;;
30896;SDS011;64229;52.246;21.054;2024-03-23T13:00:52;11.43;;;6.38;;
30896;SDS011;64229;52.246;21.054;2024-03-23T13:03:17;11.40;;;5.75;;
30896;SDS011;64229;52.246;21.054;2024-03-23T13:05:42;10.98;;;6.22;;
30896;SDS011;64229;52.246;21.054;2024-03-23T13:08:08;10.43;;;6.10;;
30896;SDS011;64229;52.246;21.054;2024-03-23T13:10:33;13.15;;;6.38;;
30896;SDS011;64229;52.246;21.054;2024-03-23T13:12:58;13.65;;;6.32;;
30896;SDS011;64229;52.246;21.054;2024-03-23T13:15:23;11.48;;;5.88;;
30896;SDS011;64229;52.246;21.054;2024-03-23T13:17:49;13.05;;;6.68;;
30896;SDS011;64229;52.246;21.054;2024-03-23T13:20:15;9.30;;;4.95;;
30896;SDS011;64229;52.246;21.054;2024-03-23T13:22:41;10.65;;;5.40;;
30896;SDS011;64229;52.246;21.054;2024-03-23T13:25:07;12.75;;;6.55;;
30896;SDS011;64229;52.246;21.054;2024-03-23T13:27:32;8.98;;;4.50;;
30896;SDS011;64229;52.246;21.054;2024-03-23T13:29:58;14.95;;;6.40;;
30896;SDS011;64229;52.246;21.054;2024-03-23T13:32:23;8.50;;;5.33;;
30896;SDS011;64229;52.246;21.054;2024-03-23T13:34:49;10.50;;;5.53;;
30896;SDS011;64229;52.246;21.054;2024-03-23T13:37:15;10.68;;;5.43;;
30896;SDS011;64229;52.246;21.054;2024-03-23T13:39:41;8.73;;;4.60;;
30896;SDS011;64229;52.246;21.054;2024-03-23T13:42:07;10.55;;;5.90;;
30896;SDS011;64229;52.246;21.054;2024-03-23T13:44:34;9.13;;;5.55;;
30896;SDS011;64229;52.246;21.054;2024-03-23T13:46:59;9.88;;;4.93;;
30896;SDS011;64229;52.246;21.054;2024-03-23T13:49:25;7.95;;;4.28;;
30896;SDS011;64229;52.246;21.054;2024-03-23T13:51:52;7.65;;;4.00;;
30896;SDS011;64229;52.246;21.054;2024-03-23T13:54:19;6.93;;;4.22;;
30896;SDS011;64229;52.246;21.054;2024-03-23T13:56:44;10.52;;;6.07;;
30896;SDS011;64229;52.246;21.054;2024-03-23T13:59:09;10.13;;;5.53;;
30896;SDS011;64229;52.246;21.054;2024-03-23T14:01:35;12.23;;;5.82;;
30896;SDS011;64229;52.246;21.054;2024-03-23T14:04:00;11.30;;;5.43;;
30896;SDS011;64229;52.246;21.054;2024-03-23T14:06:25;9.80;;;5.63;;
30896;SDS011;64229;52.246;21.054;2024-03-23T14:08:51;7.67;;;4.53;;
30896;SDS011;64229;52.246;21.054;2024-03-23T14:11:17;8.52;;;5.18;;
30896;SDS011;64229;52.246;21.054;2024-03-23T14:13:43;9.15;;;5.13;;
30896;SDS011;64229;52.246;21.054;2024-03-23T14:16:08;7.70;;;4.35;;
30896;SDS011;64229;52.246;21.054;2024-03-23T14:18:34;12.20;;;5.80;;
30896;SDS011;64229;52.246;21.054;2024-03-23T14:21:00;14.73;;;6.65;;
30896;SDS011;64229;52.246;21.054;2024-03-23T14:23:26;13.60;;;5.65;;
30896;SDS011;64229;52.246;21.054;2024-03-23T14:25:53;13.40;;;5.60;;
30896;SDS011;64229;52.246;21.054;2024-03-23T14:28:19;10.40;;;5.47;;
30896;SDS011;64229;52.246;21.054;2024-03-23T14:30:44;13.60;;;5.85;;
30896;SDS011;64229;52.246;21.054;2024-03-23T14:33:09;13.97;;;5.47;;
30896;SDS011;64229;52.246;21.054;2024-03-23T14:35:35;12.07;;;5.82;;
30896;SDS011;64229;52.246;21.054;2024-03-23T14:38:01;11.65;;;6.82;;
30896;SDS011;64229;52.246;21.054;2024-03-23T14:40:26;10.80;;;4.80;;
30896;SDS011;64229;52.246;21.054;2024-03-23T14:42:52;8.63;;;4.90;;
30896;SDS011;64229;52.246;21.054;2024-03-23T14:45:18;10.15;;;4.97;;
30896;SDS011;64229;52.246;21.054;2024-03-23T14:47:43;11.60;;;5.38;;
30896;SDS011;64229;52.246;21.054;2024-03-23T14:50:09;10.52;;;5.40;;
30896;SDS011;64229;52.246;21.054;2024-03-23T14:52:39;8.32;;;4.05;;
30896;SDS011;64229;52.246;21.054;2024-03-23T14:55:04;10.27;;;4.57;;
30896;SDS011;64229;52.246;21.054;2024-03-23T14:57:30;8.18;;;4.65;;
30896;SDS011;64229;52.246;21.054;2024-03-23T14:59:55;11.00;;;6.13;;
30896;SDS011;64229;52.246;21.054;2024-03-23T15:02:21;10.37;;;5.50;;
30896;SDS011;64229;52.246;21.054;2024-03-23T15:04:46;13.90;;;6.13;;
30896;SDS011;64229;52.246;21.054;2024-03-23T15:07:11;9.88;;;5.90;;
30896;SDS011;64229;52.246;21.054;2024-03-23T15:09:36;13.90;;;6.22;;